Station Historical Data
Daily Summary for January 20, 2017 Units:  Both    English   Metric
« Previous Day
Next Day »
Daily Weekly Monthly Yearly Custom
  High: Low: Average:
Temperature: 47.2 °F /  8.4 °C 34.1 °F /  1.2 °C 39.8 °F /  4.3 °C
Dew Point: 46.0 °F /  7.8 °C 32.8 °F /  0.4 °C 38 °F /  3.3 °C
Humidity: 96% 85% 93%
Wind Speed: 11.0mph /  17.7km/h - 1.5mph /  2.4km/h
Wind Gust: 14.0mph /  22.5km/h - -
Wind- - East
Pressure: 29.99 in /  1015.5 hPa 29.72 in /  1006.3 hPa -
Precipitation: 0.00 in /  0 mm    
Historical Graphs
 
 
Tabular Data for January 20, 2017
Time Temperature Dew Point Pressure Wind Wind Speed Wind Gust Humidity Rainfall Rate (Hourly)
00:04 34.1 °F /  1.2 °C 32.8 °F /  0.4 °C 29.99in /  1015.5hPa Calm     95% 0.00in /  0mm
00:09 34.1 °F /  1.2 °C 32.8 °F /  0.4 °C 29.98in /  1015.1hPa Calm     95% 0.00in /  0mm
00:14 34.2 °F /  1.2 °C 32.9 °F /  0.5 °C 29.98in /  1015.1hPa South 1.0mph /  1.6km/h 2.0mph /  3.2km/h 95% 0.00in /  0mm
00:19 34.1 °F /  1.2 °C 32.8 °F /  0.4 °C 29.98in /  1015.1hPa Calm   2.0mph /  3.2km/h 95% 0.00in /  0mm
00:24 34.2 °F /  1.2 °C 32.9 °F /  0.5 °C 29.98in /  1015.1hPa Calm   2.0mph /  3.2km/h 95% 0.00in /  0mm
00:29 34.2 °F /  1.2 °C 32.9 °F /  0.5 °C 29.97in /  1014.8hPa ENE 1.0mph /  1.6km/h 3.0mph /  4.8km/h 95% 0.00in /  0mm
00:34 34.2 °F /  1.2 °C 32.9 °F /  0.5 °C 29.97in /  1014.8hPa ENE 1.0mph /  1.6km/h 3.0mph /  4.8km/h 95% 0.00in /  0mm
00:39 34.2 °F /  1.2 °C 32.9 °F /  0.5 °C 29.97in /  1014.8hPa Calm   3.0mph /  4.8km/h 95% 0.00in /  0mm
00:44 34.2 °F /  1.2 °C 32.9 °F /  0.5 °C 29.97in /  1014.8hPa ENE 1.0mph /  1.6km/h 4.0mph /  6.4km/h 95% 0.00in /  0mm
00:49 34.2 °F /  1.2 °C 32.9 °F /  0.5 °C 29.97in /  1014.8hPa ENE 2.0mph /  3.2km/h 3.0mph /  4.8km/h 95% 0.00in /  0mm
00:54 34.3 °F /  1.3 °C 33.0 °F /  0.6 °C 29.96in /  1014.4hPa NE 2.0mph /  3.2km/h 5.0mph /  8km/h 95% 0.00in /  0mm
00:59 34.2 °F /  1.2 °C 32.9 °F /  0.5 °C 29.96in /  1014.4hPa NE 2.0mph /  3.2km/h 3.0mph /  4.8km/h 95% 0.00in /  0mm
01:04 34.3 °F /  1.3 °C 33.0 °F /  0.6 °C 29.96in /  1014.4hPa NE 2.0mph /  3.2km/h 3.0mph /  4.8km/h 95% 0.00in /  0mm
01:09 34.3 °F /  1.3 °C 33.0 °F /  0.6 °C 29.95in /  1014.1hPa NE 2.0mph /  3.2km/h 5.0mph /  8km/h 95% 0.00in /  0mm
01:14 34.3 °F /  1.3 °C 33.0 °F /  0.6 °C 29.95in /  1014.1hPa ENE 3.0mph /  4.8km/h 4.0mph /  6.4km/h 95% 0.00in /  0mm
01:19 34.3 °F /  1.3 °C 33.0 °F /  0.6 °C 29.95in /  1014.1hPa ENE 1.0mph /  1.6km/h 3.0mph /  4.8km/h 95% 0.00in /  0mm
01:24 34.3 °F /  1.3 °C 33.0 °F /  0.6 °C 29.95in /  1014.1hPa NE 2.0mph /  3.2km/h 4.0mph /  6.4km/h 95% 0.00in /  0mm
01:29 34.3 °F /  1.3 °C 33.0 °F /  0.6 °C 29.95in /  1014.1hPa NE 2.0mph /  3.2km/h 4.0mph /  6.4km/h 95% 0.00in /  0mm
01:34 34.3 °F /  1.3 °C 33.0 °F /  0.6 °C 29.95in /  1014.1hPa NE 2.0mph /  3.2km/h 4.0mph /  6.4km/h 95% 0.00in /  0mm
01:39 34.3 °F /  1.3 °C 33.0 °F /  0.6 °C 29.95in /  1014.1hPa NE 2.0mph /  3.2km/h 4.0mph /  6.4km/h 95% 0.00in /  0mm
01:44 34.3 °F /  1.3 °C 33.0 °F /  0.6 °C 29.95in /  1014.1hPa NE 2.0mph /  3.2km/h 4.0mph /  6.4km/h 95% 0.00in /  0mm
01:49 34.4 °F /  1.3 °C 33.1 °F /  0.6 °C 29.95in /  1014.1hPa Calm   2.0mph /  3.2km/h 95% 0.00in /  0mm
01:54 34.4 °F /  1.3 °C 33.1 °F /  0.6 °C 29.95in /  1014.1hPa NE 1.0mph /  1.6km/h 4.0mph /  6.4km/h 95% 0.00in /  0mm
01:59 34.4 °F /  1.3 °C 33.1 °F /  0.6 °C 29.94in /  1013.8hPa NE 1.0mph /  1.6km/h 3.0mph /  4.8km/h 95% 0.00in /  0mm
02:04 34.4 °F /  1.3 °C 33.1 °F /  0.6 °C 29.95in /  1014.1hPa Calm   2.0mph /  3.2km/h 95% 0.00in /  0mm
02:09 34.5 °F /  1.4 °C 33.2 °F /  0.7 °C 29.95in /  1014.1hPa ENE 1.0mph /  1.6km/h 3.0mph /  4.8km/h 95% 0.00in /  0mm
02:14 34.5 °F /  1.4 °C 33.2 °F /  0.7 °C 29.95in /  1014.1hPa NE 2.0mph /  3.2km/h 3.0mph /  4.8km/h 95% 0.00in /  0mm
02:19 34.5 °F /  1.4 °C 33.2 °F /  0.7 °C 29.95in /  1014.1hPa Calm   3.0mph /  4.8km/h 95% 0.00in /  0mm
02:24 34.6 °F /  1.4 °C 33.3 °F /  0.7 °C 29.95in /  1014.1hPa Calm     95% 0.00in /  0mm
02:29 34.6 °F /  1.4 °C 33.3 °F /  0.7 °C 29.95in /  1014.1hPa Calm     95% 0.00in /  0mm
02:34 34.6 °F /  1.4 °C 33.3 °F /  0.7 °C 29.95in /  1014.1hPa Calm     95% 0.00in /  0mm
02:39 34.6 °F /  1.4 °C 33.3 °F /  0.7 °C 29.94in /  1013.8hPa Calm     95% 0.00in /  0mm
02:44 34.6 °F /  1.4 °C 33.3 °F /  0.7 °C 29.94in /  1013.8hPa Calm     95% 0.00in /  0mm
02:49 34.6 °F /  1.4 °C 33.3 °F /  0.7 °C 29.94in /  1013.8hPa Calm     95% 0.00in /  0mm
02:54 34.6 °F /  1.4 °C 33.3 °F /  0.7 °C 29.94in /  1013.8hPa Calm     95% 0.00in /  0mm
02:59 34.6 °F /  1.4 °C 33.3 °F /  0.7 °C 29.94in /  1013.8hPa Calm     95% 0.00in /  0mm
03:04 34.7 °F /  1.5 °C 33.4 °F /  0.8 °C 29.93in /  1013.4hPa Calm     95% 0.00in /  0mm
03:09 34.6 °F /  1.4 °C 33.3 °F /  0.7 °C 29.93in /  1013.4hPa Calm     95% 0.00in /  0mm
03:14 34.7 °F /  1.5 °C 33.4 °F /  0.8 °C 29.93in /  1013.4hPa Calm     95% 0.00in /  0mm
03:19 34.7 °F /  1.5 °C 33.4 °F /  0.8 °C 29.92in /  1013.1hPa Calm     95% 0.00in /  0mm
03:24 34.8 °F /  1.6 °C 33.5 °F /  0.8 °C 29.92in /  1013.1hPa NE 3.0mph /  4.8km/h 4.0mph /  6.4km/h 95% 0.00in /  0mm
03:29 34.8 °F /  1.6 °C 33.5 °F /  0.8 °C 29.92in /  1013.1hPa NE 2.0mph /  3.2km/h 3.0mph /  4.8km/h 95% 0.00in /  0mm
03:34 34.9 °F /  1.6 °C 33.6 °F /  0.9 °C 29.91in /  1012.8hPa NE 2.0mph /  3.2km/h 4.0mph /  6.4km/h 95% 0.00in /  0mm
03:39 35.0 °F /  1.7 °C 33.7 °F /  0.9 °C 29.91in /  1012.8hPa NE 2.0mph /  3.2km/h 4.0mph /  6.4km/h 95% 0.00in /  0mm
03:44 35.0 °F /  1.7 °C 33.7 °F /  0.9 °C 29.91in /  1012.8hPa NE 1.0mph /  1.6km/h 3.0mph /  4.8km/h 95% 0.00in /  0mm
03:49 35.1 °F /  1.7 °C 33.8 °F /  1 °C 29.90in /  1012.4hPa Calm   3.0mph /  4.8km/h 95% 0.00in /  0mm
03:54 35.1 °F /  1.7 °C 33.8 °F /  1 °C 29.90in /  1012.4hPa Calm   3.0mph /  4.8km/h 95% 0.00in /  0mm
03:59 35.2 °F /  1.8 °C 33.9 °F /  1.1 °C 29.90in /  1012.4hPa NE 2.0mph /  3.2km/h 4.0mph /  6.4km/h 95% 0.00in /  0mm
04:04 35.3 °F /  1.8 °C 34.0 °F /  1.1 °C 29.89in /  1012.1hPa NE 2.0mph /  3.2km/h 4.0mph /  6.4km/h 95% 0.00in /  0mm
04:09 35.3 °F /  1.8 °C 34.0 °F /  1.1 °C 29.89in /  1012.1hPa NE 2.0mph /  3.2km/h 4.0mph /  6.4km/h 95% 0.00in /  0mm
04:14 35.4 °F /  1.9 °C 34.1 °F /  1.2 °C 29.89in /  1012.1hPa NE 1.0mph /  1.6km/h 4.0mph /  6.4km/h 95% 0.00in /  0mm
04:19 35.3 °F /  1.8 °C 34.0 °F /  1.1 °C 29.89in /  1012.1hPa Calm   2.0mph /  3.2km/h 95% 0.00in /  0mm
04:24 35.4 °F /  1.9 °C 34.1 °F /  1.2 °C 29.89in /  1012.1hPa Calm     95% 0.00in /  0mm
04:29 35.4 °F /  1.9 °C 34.1 °F /  1.2 °C 29.89in /  1012.1hPa Calm     95% 0.00in /  0mm
04:34 35.5 °F /  1.9 °C 34.2 °F /  1.2 °C 29.88in /  1011.7hPa NE 1.0mph /  1.6km/h 3.0mph /  4.8km/h 95% 0.00in /  0mm
04:39 35.6 °F /  2 °C 34.3 °F /  1.3 °C 29.88in /  1011.7hPa NE 1.0mph /  1.6km/h 4.0mph /  6.4km/h 95% 0.00in /  0mm
04:44 35.6 °F /  2 °C 34.3 °F /  1.3 °C 29.88in /  1011.7hPa ENE 1.0mph /  1.6km/h 4.0mph /  6.4km/h 95% 0.00in /  0mm
04:49 35.7 °F /  2.1 °C 34.4 °F /  1.3 °C 29.88in /  1011.7hPa Calm   2.0mph /  3.2km/h 95% 0.00in /  0mm
04:54 35.7 °F /  2.1 °C 34.4 °F /  1.3 °C 29.88in /  1011.7hPa Calm     95% 0.00in /  0mm
04:59 35.7 °F /  2.1 °C 34.4 °F /  1.3 °C 29.88in /  1011.7hPa Calm     95% 0.00in /  0mm
05:04 35.7 °F /  2.1 °C 34.4 °F /  1.3 °C 29.87in /  1011.4hPa East 2.0mph /  3.2km/h 3.0mph /  4.8km/h 95% 0.00in /  0mm
05:09 35.8 °F /  2.1 °C 34.5 °F /  1.4 °C 29.87in /  1011.4hPa ENE 1.0mph /  1.6km/h 3.0mph /  4.8km/h 95% 0.00in /  0mm
05:14 35.7 °F /  2.1 °C 34.4 °F /  1.3 °C 29.87in /  1011.4hPa ENE 1.0mph /  1.6km/h 3.0mph /  4.8km/h 95% 0.00in /  0mm
05:19 35.8 °F /  2.1 °C 34.5 °F /  1.4 °C 29.87in /  1011.4hPa Calm   2.0mph /  3.2km/h 95% 0.00in /  0mm
05:24 35.9 °F /  2.2 °C 34.6 °F /  1.4 °C 29.86in /  1011.1hPa ENE 1.0mph /  1.6km/h 4.0mph /  6.4km/h 95% 0.00in /  0mm
05:29 35.8 °F /  2.1 °C 34.5 °F /  1.4 °C 29.86in /  1011.1hPa NE 2.0mph /  3.2km/h 5.0mph /  8km/h 95% 0.00in /  0mm
05:34 35.9 °F /  2.2 °C 34.6 °F /  1.4 °C 29.86in /  1011.1hPa NE 2.0mph /  3.2km/h 5.0mph /  8km/h 95% 0.00in /  0mm
05:39 35.8 °F /  2.1 °C 34.5 °F /  1.4 °C 29.86in /  1011.1hPa NE 2.0mph /  3.2km/h 4.0mph /  6.4km/h 95% 0.00in /  0mm
05:44 35.8 °F /  2.1 °C 34.5 °F /  1.4 °C 29.86in /  1011.1hPa NE 2.0mph /  3.2km/h 4.0mph /  6.4km/h 95% 0.00in /  0mm
05:49 35.8 °F /  2.1 °C 34.5 °F /  1.4 °C 29.85in /  1010.7hPa NE 3.0mph /  4.8km/h 4.0mph /  6.4km/h 95% 0.00in /  0mm
05:54 35.8 °F /  2.1 °C 34.5 °F /  1.4 °C 29.85in /  1010.7hPa NE 2.0mph /  3.2km/h 4.0mph /  6.4km/h 95% 0.00in /  0mm
05:59 35.8 °F /  2.1 °C 34.5 °F /  1.4 °C 29.85in /  1010.7hPa ENE 1.0mph /  1.6km/h 4.0mph /  6.4km/h 95% 0.00in /  0mm
06:04 35.8 °F /  2.1 °C 34.5 °F /  1.4 °C 29.85in /  1010.7hPa ENE 3.0mph /  4.8km/h 6.0mph /  9.7km/h 95% 0.00in /  0mm
06:09 35.8 °F /  2.1 °C 34.5 °F /  1.4 °C 29.85in /  1010.7hPa ENE 2.0mph /  3.2km/h 5.0mph /  8km/h 95% 0.00in /  0mm
06:14 35.8 °F /  2.1 °C 34.5 °F /  1.4 °C 29.85in /  1010.7hPa ENE 2.0mph /  3.2km/h 5.0mph /  8km/h 95% 0.00in /  0mm
06:19 35.8 °F /  2.1 °C 34.5 °F /  1.4 °C 29.85in /  1010.7hPa ENE 2.0mph /  3.2km/h 5.0mph /  8km/h 95% 0.00in /  0mm
06:24 35.8 °F /  2.1 °C 34.5 °F /  1.4 °C 29.85in /  1010.7hPa East 1.0mph /  1.6km/h 5.0mph /  8km/h 95% 0.00in /  0mm
06:29 35.7 °F /  2.1 °C 34.4 °F /  1.3 °C 29.85in /  1010.7hPa East 1.0mph /  1.6km/h 4.0mph /  6.4km/h 95% 0.00in /  0mm
06:34 35.8 °F /  2.1 °C 34.5 °F /  1.4 °C 29.85in /  1010.7hPa East 2.0mph /  3.2km/h 6.0mph /  9.7km/h 95% 0.00in /  0mm
06:39 35.8 °F /  2.1 °C 34.5 °F /  1.4 °C 29.85in /  1010.7hPa Calm   3.0mph /  4.8km/h 95% 0.00in /  0mm
06:44 35.9 °F /  2.2 °C 34.6 °F /  1.4 °C 29.85in /  1010.7hPa Calm   2.0mph /  3.2km/h 95% 0.00in /  0mm
06:49 35.8 °F /  2.1 °C 34.5 °F /  1.4 °C 29.84in /  1010.4hPa Calm   5.0mph /  8km/h 95% 0.00in /  0mm
06:54 35.8 °F /  2.1 °C 34.5 °F /  1.4 °C 29.85in /  1010.7hPa ESE 1.0mph /  1.6km/h 3.0mph /  4.8km/h 95% 0.00in /  0mm
06:59 35.8 °F /  2.1 °C 34.5 °F /  1.4 °C 29.85in /  1010.7hPa Calm   4.0mph /  6.4km/h 95% 0.00in /  0mm
07:04 35.9 °F /  2.2 °C 34.6 °F /  1.4 °C 29.84in /  1010.4hPa ESE 1.0mph /  1.6km/h 3.0mph /  4.8km/h 95% 0.00in /  0mm
07:09 35.8 °F /  2.1 °C 34.5 °F /  1.4 °C 29.84in /  1010.4hPa ESE 1.0mph /  1.6km/h 5.0mph /  8km/h 95% 0.00in /  0mm
07:14 35.8 °F /  2.1 °C 34.5 °F /  1.4 °C 29.83in /  1010hPa ENE 1.0mph /  1.6km/h 3.0mph /  4.8km/h 95% 0.00in /  0mm
07:19 35.8 °F /  2.1 °C 34.5 °F /  1.4 °C 29.83in /  1010hPa East 1.0mph /  1.6km/h 3.0mph /  4.8km/h 95% 0.00in /  0mm
07:24 35.7 °F /  2.1 °C 34.4 °F /  1.3 °C 29.84in /  1010.4hPa East 2.0mph /  3.2km/h 4.0mph /  6.4km/h 95% 0.00in /  0mm
07:29 35.7 °F /  2.1 °C 34.4 °F /  1.3 °C 29.84in /  1010.4hPa ESE 1.0mph /  1.6km/h 4.0mph /  6.4km/h 95% 0.00in /  0mm
07:34 35.7 °F /  2.1 °C 34.4 °F /  1.3 °C 29.84in /  1010.4hPa ESE 1.0mph /  1.6km/h 5.0mph /  8km/h 95% 0.00in /  0mm
07:39 35.7 °F /  2.1 °C 34.4 °F /  1.3 °C 29.83in /  1010hPa ESE 2.0mph /  3.2km/h 5.0mph /  8km/h 95% 0.00in /  0mm
07:44 35.7 °F /  2.1 °C 34.4 °F /  1.3 °C 29.83in /  1010hPa SSE 3.0mph /  4.8km/h 5.0mph /  8km/h 95% 0.00in /  0mm
07:49 35.7 °F /  2.1 °C 34.4 °F /  1.3 °C 29.83in /  1010hPa ESE 2.0mph /  3.2km/h 5.0mph /  8km/h 95% 0.00in /  0mm
07:54 35.6 °F /  2 °C 34.3 °F /  1.3 °C 29.83in /  1010hPa SE 3.0mph /  4.8km/h 6.0mph /  9.7km/h 95% 0.00in /  0mm
07:59 35.6 °F /  2 °C 34.0 °F /  1.1 °C 29.82in /  1009.7hPa NE 1.0mph /  1.6km/h 4.0mph /  6.4km/h 94% 0.00in /  0mm
08:04 35.5 °F /  1.9 °C 33.9 °F /  1.1 °C 29.82in /  1009.7hPa Calm   5.0mph /  8km/h 94% 0.00in /  0mm
08:09 35.5 °F /  1.9 °C 33.9 °F /  1.1 °C 29.82in /  1009.7hPa East 2.0mph /  3.2km/h 3.0mph /  4.8km/h 94% 0.00in /  0mm
08:14 35.4 °F /  1.9 °C 33.8 °F /  1 °C 29.81in /  1009.4hPa ENE 2.0mph /  3.2km/h 4.0mph /  6.4km/h 94% 0.00in /  0mm
08:19 35.4 °F /  1.9 °C 33.8 °F /  1 °C 29.81in /  1009.4hPa ENE 2.0mph /  3.2km/h 4.0mph /  6.4km/h 94% 0.00in /  0mm
08:24 35.3 °F /  1.8 °C 33.7 °F /  0.9 °C 29.81in /  1009.4hPa ENE 2.0mph /  3.2km/h 4.0mph /  6.4km/h 94% 0.00in /  0mm
08:29 35.4 °F /  1.9 °C 33.8 °F /  1 °C 29.81in /  1009.4hPa ENE 2.0mph /  3.2km/h 5.0mph /  8km/h 94% 0.00in /  0mm
08:34 35.4 °F /  1.9 °C 33.8 °F /  1 °C 29.81in /  1009.4hPa ENE 2.0mph /  3.2km/h 5.0mph /  8km/h 94% 0.00in /  0mm
08:39 35.4 °F /  1.9 °C 33.8 °F /  1 °C 29.81in /  1009.4hPa ENE 2.0mph /  3.2km/h 5.0mph /  8km/h 94% 0.00in /  0mm
08:44 35.5 °F /  1.9 °C 33.9 °F /  1.1 °C 29.81in /  1009.4hPa East 2.0mph /  3.2km/h 5.0mph /  8km/h 94% 0.00in /  0mm
08:49 35.5 °F /  1.9 °C 33.9 °F /  1.1 °C 29.81in /  1009.4hPa Calm   4.0mph /  6.4km/h 94% 0.00in /  0mm
08:54 35.6 °F /  2 °C 34.0 °F /  1.1 °C 29.81in /  1009.4hPa ENE 2.0mph /  3.2km/h 5.0mph /  8km/h 94% 0.00in /  0mm
08:59 36.0 °F /  2.2 °C 34.4 °F /  1.3 °C 29.81in /  1009.4hPa ENE 1.0mph /  1.6km/h 5.0mph /  8km/h 94% 0.00in /  0mm
09:04 36.3 °F /  2.4 °C 34.5 °F /  1.4 °C 29.81in /  1009.4hPa East 2.0mph /  3.2km/h 5.0mph /  8km/h 93% 0.00in /  0mm
09:09 36.7 °F /  2.6 °C 34.6 °F /  1.4 °C 29.81in /  1009.4hPa East 2.0mph /  3.2km/h 3.0mph /  4.8km/h 92% 0.00in /  0mm
09:14 37.0 °F /  2.8 °C 34.6 °F /  1.4 °C 29.80in /  1009hPa ENE 3.0mph /  4.8km/h 3.0mph /  4.8km/h 91% 0.00in /  0mm
09:19 37.3 °F /  2.9 °C 34.6 °F /  1.4 °C 29.80in /  1009hPa East 2.0mph /  3.2km/h 4.0mph /  6.4km/h 90% 0.00in /  0mm
09:24 37.5 °F /  3.1 °C 34.8 °F /  1.6 °C 29.80in /  1009hPa East 1.0mph /  1.6km/h 5.0mph /  8km/h 90% 0.00in /  0mm
09:29 37.7 °F /  3.2 °C 34.8 °F /  1.6 °C 29.80in /  1009hPa Calm   7.0mph /  11.3km/h 89% 0.00in /  0mm
09:34 37.9 °F /  3.3 °C 34.9 °F /  1.6 °C 29.80in /  1009hPa ENE 2.0mph /  3.2km/h 7.0mph /  11.3km/h 89% 0.00in /  0mm
09:39 37.9 °F /  3.3 °C 34.7 °F /  1.5 °C 29.80in /  1009hPa ENE 2.0mph /  3.2km/h 6.0mph /  9.7km/h 88% 0.00in /  0mm
09:44 38.0 °F /  3.3 °C 34.8 °F /  1.6 °C 29.80in /  1009hPa ENE 2.0mph /  3.2km/h 6.0mph /  9.7km/h 88% 0.00in /  0mm
09:49 38.0 °F /  3.3 °C 34.8 °F /  1.6 °C 29.80in /  1009hPa NE 2.0mph /  3.2km/h 5.0mph /  8km/h 88% 0.00in /  0mm
09:54 38.2 °F /  3.4 °C 35.0 °F /  1.7 °C 29.81in /  1009.4hPa East 3.0mph /  4.8km/h 5.0mph /  8km/h 88% 0.00in /  0mm
09:59 38.3 °F /  3.5 °C 35.1 °F /  1.7 °C 29.81in /  1009.4hPa ENE 1.0mph /  1.6km/h 5.0mph /  8km/h 88% 0.00in /  0mm
10:04 38.6 °F /  3.7 °C 35.4 °F /  1.9 °C 29.81in /  1009.4hPa Calm   3.0mph /  4.8km/h 88% 0.00in /  0mm
10:09 38.6 °F /  3.7 °C 35.4 °F /  1.9 °C 29.81in /  1009.4hPa Calm   3.0mph /  4.8km/h 88% 0.00in /  0mm
10:19 38.9 °F /  3.8 °C 35.6 °F /  2 °C 29.81in /  1009.4hPa Calm   3.0mph /  4.8km/h 88% 0.00in /  0mm
10:44 39.4 °F /  4.1 °C 36.1 °F /  2.3 °C 29.81in /  1009.4hPa NE 3.0mph /  4.8km/h 4.0mph /  6.4km/h 88% 0.00in /  0mm
10:49 39.5 °F /  4.2 °C 36.0 °F /  2.2 °C 29.80in /  1009hPa ENE 2.0mph /  3.2km/h 4.0mph /  6.4km/h 87% 0.00in /  0mm
10:54 39.6 °F /  4.2 °C 36.0 °F /  2.2 °C 29.80in /  1009hPa NE 2.0mph /  3.2km/h 3.0mph /  4.8km/h 87% 0.00in /  0mm
10:59 39.7 °F /  4.3 °C 35.9 °F /  2.2 °C 29.80in /  1009hPa NE 2.0mph /  3.2km/h 4.0mph /  6.4km/h 86% 0.00in /  0mm
11:04 39.8 °F /  4.3 °C 36.2 °F /  2.3 °C 29.80in /  1009hPa NE 1.0mph /  1.6km/h 4.0mph /  6.4km/h 87% 0.00in /  0mm
11:09 39.9 °F /  4.4 °C 36.3 °F /  2.4 °C 29.79in /  1008.7hPa Calm   3.0mph /  4.8km/h 87% 0.00in /  0mm
11:14 40.2 °F /  4.6 °C 36.6 °F /  2.6 °C 29.79in /  1008.7hPa Calm   3.0mph /  4.8km/h 87% 0.00in /  0mm
11:19 40.3 °F /  4.6 °C 36.7 °F /  2.6 °C 29.79in /  1008.7hPa NE 1.0mph /  1.6km/h 4.0mph /  6.4km/h 87% 0.00in /  0mm
11:24 40.2 °F /  4.6 °C 36.3 °F /  2.4 °C 29.79in /  1008.7hPa ENE 4.0mph /  6.4km/h 4.0mph /  6.4km/h 86% 0.00in /  0mm
11:29 40.3 °F /  4.6 °C 36.4 °F /  2.4 °C 29.78in /  1008.4hPa ENE 3.0mph /  4.8km/h 4.0mph /  6.4km/h 86% 0.00in /  0mm
11:44 41.1 °F /  5.1 °C 37.2 °F /  2.9 °C 29.78in /  1008.4hPa NE 1.0mph /  1.6km/h 4.0mph /  6.4km/h 86% 0.00in /  0mm
11:49 41.1 °F /  5.1 °C 36.9 °F /  2.7 °C 29.78in /  1008.4hPa ENE 2.0mph /  3.2km/h 4.0mph /  6.4km/h 85% 0.00in /  0mm
11:54 41.2 °F /  5.1 °C 37.3 °F /  2.9 °C 29.78in /  1008.4hPa NE 1.0mph /  1.6km/h 4.0mph /  6.4km/h 86% 0.00in /  0mm
11:59 41.3 °F /  5.2 °C 37.4 °F /  3 °C 29.77in /  1008hPa NE 2.0mph /  3.2km/h 4.0mph /  6.4km/h 86% 0.00in /  0mm
12:04 41.3 °F /  5.2 °C 37.4 °F /  3 °C 29.77in /  1008hPa NE 2.0mph /  3.2km/h 4.0mph /  6.4km/h 86% 0.00in /  0mm
12:09 41.5 °F /  5.3 °C 37.6 °F /  3.1 °C 29.77in /  1008hPa NE 2.0mph /  3.2km/h 5.0mph /  8km/h 86% 0.00in /  0mm
12:14 41.5 °F /  5.3 °C 37.6 °F /  3.1 °C 29.77in /  1008hPa NE 2.0mph /  3.2km/h 5.0mph /  8km/h 86% 0.00in /  0mm
12:19 41.6 °F /  5.3 °C 37.7 °F /  3.2 °C 29.76in /  1007.7hPa NE 3.0mph /  4.8km/h 5.0mph /  8km/h 86% 0.00in /  0mm
12:24 41.7 °F /  5.4 °C 37.8 °F /  3.2 °C 29.76in /  1007.7hPa NE 2.0mph /  3.2km/h 4.0mph /  6.4km/h 86% 0.00in /  0mm
12:29 41.8 °F /  5.4 °C 37.9 °F /  3.3 °C 29.76in /  1007.7hPa East 2.0mph /  3.2km/h 3.0mph /  4.8km/h 86% 0.00in /  0mm
12:34 41.9 °F /  5.5 °C 38.0 °F /  3.3 °C 29.75in /  1007.3hPa ENE 1.0mph /  1.6km/h 5.0mph /  8km/h 86% 0.00in /  0mm
12:39 41.8 °F /  5.4 °C 38.2 °F /  3.4 °C 29.75in /  1007.3hPa ENE 1.0mph /  1.6km/h 4.0mph /  6.4km/h 87% 0.00in /  0mm
12:44 41.6 °F /  5.3 °C 38.3 °F /  3.5 °C 29.75in /  1007.3hPa NE 3.0mph /  4.8km/h 5.0mph /  8km/h 88% 0.01in /  0.25mm
12:49 41.5 °F /  5.3 °C 38.2 °F /  3.4 °C 29.74in /  1007hPa NE 3.0mph /  4.8km/h 5.0mph /  8km/h 88% 0.01in /  0.25mm
12:54 41.5 °F /  5.3 °C 38.5 °F /  3.6 °C 29.74in /  1007hPa NE 1.0mph /  1.6km/h 3.0mph /  4.8km/h 89% 0.01in /  0.25mm
12:59 41.4 °F /  5.2 °C 38.7 °F /  3.7 °C 29.74in /  1007hPa NE 3.0mph /  4.8km/h 5.0mph /  8km/h 90% 0.02in /  0.51mm
13:04 41.4 °F /  5.2 °C 38.7 °F /  3.7 °C 29.74in /  1007hPa NE 3.0mph /  4.8km/h 5.0mph /  8km/h 90% 0.03in /  0.76mm
13:09 41.3 °F /  5.2 °C 38.6 °F /  3.7 °C 29.73in /  1006.7hPa NE 2.0mph /  3.2km/h 5.0mph /  8km/h 90% 0.05in /  1.27mm
13:14 41.4 °F /  5.2 °C 39.0 °F /  3.9 °C 29.73in /  1006.7hPa NE 2.0mph /  3.2km/h 4.0mph /  6.4km/h 91% 0.05in /  1.27mm
13:19 41.5 °F /  5.3 °C 39.1 °F /  3.9 °C 29.73in /  1006.7hPa NE 2.0mph /  3.2km/h 4.0mph /  6.4km/h 91% 0.06in /  1.52mm
13:24 41.6 °F /  5.3 °C 38.9 °F /  3.8 °C 29.73in /  1006.7hPa NE 2.0mph /  3.2km/h 4.0mph /  6.4km/h 90% 0.06in /  1.52mm
13:29 41.8 °F /  5.4 °C 39.4 °F /  4.1 °C 29.73in /  1006.7hPa NE 1.0mph /  1.6km/h 3.0mph /  4.8km/h 91% 0.06in /  1.52mm
13:34 41.8 °F /  5.4 °C 39.4 °F /  4.1 °C 29.73in /  1006.7hPa ENE 1.0mph /  1.6km/h 3.0mph /  4.8km/h 91% 0.06in /  1.52mm
13:39 41.8 °F /  5.4 °C 39.4 °F /  4.1 °C 29.72in /  1006.3hPa ENE 1.0mph /  1.6km/h 3.0mph /  4.8km/h 91% 0.07in /  1.78mm
13:44 41.8 °F /  5.4 °C 39.4 °F /  4.1 °C 29.73in /  1006.7hPa ENE 2.0mph /  3.2km/h 3.0mph /  4.8km/h 91% 0.06in /  1.52mm
13:49 41.7 °F /  5.4 °C 39.3 °F /  4.1 °C 29.72in /  1006.3hPa Calm   3.0mph /  4.8km/h 91% 0.06in /  1.52mm
13:54 42.0 °F /  5.6 °C 39.8 °F /  4.3 °C 29.72in /  1006.3hPa Calm     92% 0.07in /  1.78mm
13:59 42.2 °F /  5.7 °C 40.0 °F /  4.4 °C 29.72in /  1006.3hPa Calm     92% 0.06in /  1.52mm
14:04 42.2 °F /  5.7 °C 40.0 °F /  4.4 °C 29.72in /  1006.3hPa Calm     92% 0.05in /  1.27mm
14:09 42.1 °F /  5.6 °C 39.7 °F /  4.3 °C 29.72in /  1006.3hPa Calm   3.0mph /  4.8km/h 91% 0.03in /  0.76mm
14:14 42.2 °F /  5.7 °C 40.0 °F /  4.4 °C 29.72in /  1006.3hPa ENE 1.0mph /  1.6km/h 4.0mph /  6.4km/h 92% 0.03in /  0.76mm
14:19 42.2 °F /  5.7 °C 40.0 °F /  4.4 °C 29.73in /  1006.7hPa ENE 2.0mph /  3.2km/h 4.0mph /  6.4km/h 92% 0.02in /  0.51mm
14:24 42.2 °F /  5.7 °C 40.0 °F /  4.4 °C 29.73in /  1006.7hPa ENE 2.0mph /  3.2km/h 4.0mph /  6.4km/h 92% 0.02in /  0.51mm
14:29 42.2 °F /  5.7 °C 40.0 °F /  4.4 °C 29.73in /  1006.7hPa NE 2.0mph /  3.2km/h 4.0mph /  6.4km/h 92% 0.03in /  0.76mm
14:34 42.4 °F /  5.8 °C 40.2 °F /  4.6 °C 29.73in /  1006.7hPa NE 1.0mph /  1.6km/h 4.0mph /  6.4km/h 92% 0.03in /  0.76mm
14:39 42.5 °F /  5.8 °C 40.3 °F /  4.6 °C 29.73in /  1006.7hPa NE 1.0mph /  1.6km/h 4.0mph /  6.4km/h 92% 0.02in /  0.51mm
14:44 42.5 °F /  5.8 °C 40.3 °F /  4.6 °C 29.73in /  1006.7hPa NE 1.0mph /  1.6km/h 3.0mph /  4.8km/h 92% 0.02in /  0.51mm
14:49 42.6 °F /  5.9 °C 40.4 °F /  4.7 °C 29.73in /  1006.7hPa NE 1.0mph /  1.6km/h 3.0mph /  4.8km/h 92% 0.02in /  0.51mm
14:54 42.7 °F /  5.9 °C 40.5 °F /  4.7 °C 29.73in /  1006.7hPa NE 1.0mph /  1.6km/h 3.0mph /  4.8km/h 92% 0.02in /  0.51mm
14:59 42.7 °F /  5.9 °C 40.5 °F /  4.7 °C 29.73in /  1006.7hPa NE 1.0mph /  1.6km/h 3.0mph /  4.8km/h 92% 0.02in /  0.51mm
15:04 42.7 °F /  5.9 °C 40.5 °F /  4.7 °C 29.73in /  1006.7hPa NE 1.0mph /  1.6km/h 2.0mph /  3.2km/h 92% 0.02in /  0.51mm
15:09 42.7 °F /  5.9 °C 40.8 °F /  4.9 °C 29.73in /  1006.7hPa NE 1.0mph /  1.6km/h 2.0mph /  3.2km/h 93% 0.02in /  0.51mm
15:14 42.7 °F /  5.9 °C 40.5 °F /  4.7 °C 29.73in /  1006.7hPa NE 1.0mph /  1.6km/h 3.0mph /  4.8km/h 92% 0.02in /  0.51mm
15:19 42.5 °F /  5.8 °C 40.6 °F /  4.8 °C 29.73in /  1006.7hPa NE 2.0mph /  3.2km/h 3.0mph /  4.8km/h 93% 0.02in /  0.51mm
15:24 42.7 °F /  5.9 °C 40.8 °F /  4.9 °C 29.73in /  1006.7hPa NE 1.0mph /  1.6km/h 3.0mph /  4.8km/h 93% 0.03in /  0.76mm
15:29 42.7 °F /  5.9 °C 40.8 °F /  4.9 °C 29.73in /  1006.7hPa NE 1.0mph /  1.6km/h 4.0mph /  6.4km/h 93% 0.02in /  0.51mm
15:34 42.7 °F /  5.9 °C 40.8 °F /  4.9 °C 29.73in /  1006.7hPa NE 1.0mph /  1.6km/h 4.0mph /  6.4km/h 93% 0.02in /  0.51mm
15:39 42.7 °F /  5.9 °C 40.8 °F /  4.9 °C 29.73in /  1006.7hPa NE 1.0mph /  1.6km/h 4.0mph /  6.4km/h 93% 0.02in /  0.51mm
15:44 42.7 °F /  5.9 °C 40.8 °F /  4.9 °C 29.74in /  1007hPa NE 1.0mph /  1.6km/h 4.0mph /  6.4km/h 93% 0.02in /  0.51mm
15:49 42.7 °F /  5.9 °C 40.8 °F /  4.9 °C 29.73in /  1006.7hPa NE 1.0mph /  1.6km/h 3.0mph /  4.8km/h 93% 0.02in /  0.51mm
15:54 42.8 °F /  6 °C 40.9 °F /  4.9 °C 29.73in /  1006.7hPa NE 1.0mph /  1.6km/h 3.0mph /  4.8km/h 93% 0.01in /  0.25mm
15:59 42.9 °F /  6.1 °C 41.0 °F /  5 °C 29.73in /  1006.7hPa Calm   2.0mph /  3.2km/h 93% 0.01in /  0.25mm
16:04 42.9 °F /  6.1 °C 41.0 °F /  5 °C 29.74in /  1007hPa Calm   2.0mph /  3.2km/h 93% 0.01in /  0.25mm
16:09 42.9 °F /  6.1 °C 41.0 °F /  5 °C 29.74in /  1007hPa Calm     93% 0.02in /  0.51mm
16:14 43.0 °F /  6.1 °C 41.4 °F /  5.2 °C 29.73in /  1006.7hPa Calm     94% 0.02in /  0.51mm
16:19 43.1 °F /  6.2 °C 41.5 °F /  5.3 °C 29.73in /  1006.7hPa Calm     94% 0.02in /  0.51mm
16:24 43.1 °F /  6.2 °C 41.5 °F /  5.3 °C 29.73in /  1006.7hPa Calm     94% 0.01in /  0.25mm
16:29 43.1 °F /  6.2 °C 41.5 °F /  5.3 °C 29.73in /  1006.7hPa Calm     94% 0.01in /  0.25mm
16:34 43.1 °F /  6.2 °C 41.5 °F /  5.3 °C 29.73in /  1006.7hPa Calm     94% 0.01in /  0.25mm
16:39 43.2 °F /  6.2 °C 41.6 °F /  5.3 °C 29.73in /  1006.7hPa Calm     94% 0.01in /  0.25mm
16:44 43.2 °F /  6.2 °C 41.6 °F /  5.3 °C 29.73in /  1006.7hPa Calm     94% 0.01in /  0.25mm
16:49 43.2 °F /  6.2 °C 41.6 °F /  5.3 °C 29.73in /  1006.7hPa Calm     94% 0.01in /  0.25mm
16:54 43.3 °F /  6.3 °C 41.7 °F /  5.4 °C 29.73in /  1006.7hPa Calm     94% 0.01in /  0.25mm
16:59 43.3 °F /  6.3 °C 41.7 °F /  5.4 °C 29.73in /  1006.7hPa Calm     94% 0.01in /  0.25mm
17:04 43.3 °F /  6.3 °C 41.7 °F /  5.4 °C 29.73in /  1006.7hPa Calm     94% 0.01in /  0.25mm
17:09 43.4 °F /  6.3 °C 41.8 °F /  5.4 °C 29.73in /  1006.7hPa Calm     94% 0.00in /  0mm
17:14 43.4 °F /  6.3 °C 41.8 °F /  5.4 °C 29.73in /  1006.7hPa Calm     94% 0.00in /  0mm
17:19 43.4 °F /  6.3 °C 41.8 °F /  5.4 °C 29.73in /  1006.7hPa Calm     94% 0.00in /  0mm
17:24 43.4 °F /  6.3 °C 41.8 °F /  5.4 °C 29.74in /  1007hPa Calm     94% 0.00in /  0mm
17:29 43.5 °F /  6.4 °C 41.9 °F /  5.5 °C 29.73in /  1006.7hPa Calm     94% 0.00in /  0mm
17:34 43.5 °F /  6.4 °C 41.9 °F /  5.5 °C 29.73in /  1006.7hPa Calm     94% 0.00in /  0mm
17:39 43.5 °F /  6.4 °C 41.9 °F /  5.5 °C 29.74in /  1007hPa Calm     94% 0.00in /  0mm
17:44 43.5 °F /  6.4 °C 41.9 °F /  5.5 °C 29.74in /  1007hPa Calm     94% 0.00in /  0mm
17:49 43.6 °F /  6.4 °C 42.0 °F /  5.6 °C 29.74in /  1007hPa Calm     94% 0.00in /  0mm
17:54 43.6 °F /  6.4 °C 42.0 °F /  5.6 °C 29.74in /  1007hPa Calm     94% 0.00in /  0mm
17:59 43.6 °F /  6.4 °C 42.0 °F /  5.6 °C 29.74in /  1007hPa Calm     94% 0.00in /  0mm
18:04 43.6 °F /  6.4 °C 42.0 °F /  5.6 °C 29.74in /  1007hPa Calm     94% 0.00in /  0mm
18:09 43.6 °F /  6.4 °C 42.0 °F /  5.6 °C 29.74in /  1007hPa Calm     94% 0.00in /  0mm
18:14 43.7 °F /  6.5 °C 42.1 °F /  5.6 °C 29.74in /  1007hPa Calm     94% 0.00in /  0mm
18:19 43.7 °F /  6.5 °C 42.1 °F /  5.6 °C 29.75in /  1007.3hPa Calm     94% 0.00in /  0mm
18:24 43.6 °F /  6.4 °C 42.0 °F /  5.6 °C 29.74in /  1007hPa Calm     94% 0.01in /  0.25mm
18:29 43.7 °F /  6.5 °C 42.1 °F /  5.6 °C 29.75in /  1007.3hPa Calm     94% 0.01in /  0.25mm
18:34 43.7 °F /  6.5 °C 42.1 °F /  5.6 °C 29.75in /  1007.3hPa Calm     94% 0.01in /  0.25mm
18:39 43.7 °F /  6.5 °C 42.1 °F /  5.6 °C 29.75in /  1007.3hPa Calm     94% 0.01in /  0.25mm
18:44 43.7 °F /  6.5 °C 42.1 °F /  5.6 °C 29.75in /  1007.3hPa Calm     94% 0.01in /  0.25mm
18:49 43.7 °F /  6.5 °C 42.1 °F /  5.6 °C 29.75in /  1007.3hPa Calm     94% 0.01in /  0.25mm
18:54 43.7 °F /  6.5 °C 42.1 °F /  5.6 °C 29.75in /  1007.3hPa Calm     94% 0.01in /  0.25mm
18:59 43.8 °F /  6.6 °C 42.2 °F /  5.7 °C 29.75in /  1007.3hPa Calm     94% 0.01in /  0.25mm
19:04 43.8 °F /  6.6 °C 42.2 °F /  5.7 °C 29.75in /  1007.3hPa Calm     94% 0.01in /  0.25mm
19:09 43.8 °F /  6.6 °C 42.2 °F /  5.7 °C 29.75in /  1007.3hPa Calm     94% 0.01in /  0.25mm
19:14 43.8 °F /  6.6 °C 42.2 °F /  5.7 °C 29.75in /  1007.3hPa Calm     94% 0.01in /  0.25mm
19:19 43.9 °F /  6.6 °C 42.3 °F /  5.7 °C 29.75in /  1007.3hPa Calm     94% 0.01in /  0.25mm
19:24 43.9 °F /  6.6 °C 42.6 °F /  5.9 °C 29.75in /  1007.3hPa Calm     95% 0.00in /  0mm
19:29 44.0 °F /  6.7 °C 42.4 °F /  5.8 °C 29.75in /  1007.3hPa Calm     94% 0.00in /  0mm
19:34 44.0 °F /  6.7 °C 42.4 °F /  5.8 °C 29.75in /  1007.3hPa Calm     94% 0.00in /  0mm
19:39 44.0 °F /  6.7 °C 42.4 °F /  5.8 °C 29.75in /  1007.3hPa Calm     94% 0.00in /  0mm
19:44 44.0 °F /  6.7 °C 42.4 °F /  5.8 °C 29.75in /  1007.3hPa Calm     94% 0.00in /  0mm
19:49 44.1 °F /  6.7 °C 42.8 °F /  6 °C 29.75in /  1007.3hPa Calm     95% 0.00in /  0mm
19:54 44.1 °F /  6.7 °C 42.8 °F /  6 °C 29.75in /  1007.3hPa Calm     95% 0.00in /  0mm
19:59 44.1 °F /  6.7 °C 42.8 °F /  6 °C 29.75in /  1007.3hPa Calm     95% 0.00in /  0mm
20:04 44.2 °F /  6.8 °C 42.9 °F /  6.1 °C 29.75in /  1007.3hPa Calm     95% 0.00in /  0mm
20:09 44.2 °F /  6.8 °C 42.9 °F /  6.1 °C 29.76in /  1007.7hPa Calm     95% 0.00in /  0mm
20:14 44.2 °F /  6.8 °C 42.9 °F /  6.1 °C 29.75in /  1007.3hPa Calm     95% 0.00in /  0mm
20:19 44.3 °F /  6.8 °C 43.0 °F /  6.1 °C 29.75in /  1007.3hPa Calm     95% 0.00in /  0mm
20:24 44.3 °F /  6.8 °C 43.0 °F /  6.1 °C 29.75in /  1007.3hPa Calm     95% 0.00in /  0mm
20:29 44.3 °F /  6.8 °C 43.0 °F /  6.1 °C 29.75in /  1007.3hPa Calm     95% 0.00in /  0mm
20:34 44.3 °F /  6.8 °C 43.0 °F /  6.1 °C 29.75in /  1007.3hPa Calm     95% 0.00in /  0mm
20:39 44.4 °F /  6.9 °C 43.1 °F /  6.2 °C 29.76in /  1007.7hPa Calm     95% 0.00in /  0mm
20:44 44.3 °F /  6.8 °C 43.0 °F /  6.1 °C 29.76in /  1007.7hPa Calm     95% 0.00in /  0mm
20:49 44.3 °F /  6.8 °C 43.0 °F /  6.1 °C 29.76in /  1007.7hPa Calm     95% 0.00in /  0mm
20:54 44.4 °F /  6.9 °C 43.1 °F /  6.2 °C 29.76in /  1007.7hPa Calm     95% 0.00in /  0mm
20:59 44.6 °F /  7 °C 43.3 °F /  6.3 °C 29.76in /  1007.7hPa SW 1.0mph /  1.6km/h 4.0mph /  6.4km/h 95% 0.00in /  0mm
21:04 45.1 °F /  7.3 °C 43.8 °F /  6.6 °C 29.76in /  1007.7hPa SW 2.0mph /  3.2km/h 5.0mph /  8km/h 95% 0.00in /  0mm
21:09 45.7 °F /  7.6 °C 44.4 °F /  6.9 °C 29.76in /  1007.7hPa SSW 3.0mph /  4.8km/h 6.0mph /  9.7km/h 95% 0.00in /  0mm
21:14 46.3 °F /  7.9 °C 45.2 °F /  7.3 °C 29.76in /  1007.7hPa WSW 2.0mph /  3.2km/h 6.0mph /  9.7km/h 96% 0.00in /  0mm
21:19 46.5 °F /  8.1 °C 45.4 °F /  7.4 °C 29.77in /  1008hPa SW 4.0mph /  6.4km/h 5.0mph /  8km/h 96% 0.00in /  0mm
21:24 46.8 °F /  8.2 °C 45.4 °F /  7.4 °C 29.77in /  1008hPa WSW 2.0mph /  3.2km/h 5.0mph /  8km/h 95% 0.00in /  0mm
21:29 46.9 °F /  8.3 °C 45.8 °F /  7.7 °C 29.77in /  1008hPa SW 3.0mph /  4.8km/h 6.0mph /  9.7km/h 96% 0.00in /  0mm
21:34 47.1 °F /  8.4 °C 46.0 °F /  7.8 °C 29.77in /  1008hPa SW 4.0mph /  6.4km/h 8.0mph /  12.9km/h 96% 0.00in /  0mm
21:39 47.2 °F /  8.4 °C 45.8 °F /  7.7 °C 29.77in /  1008hPa WSW 4.0mph /  6.4km/h 8.0mph /  12.9km/h 95% 0.00in /  0mm
21:44 47.2 °F /  8.4 °C 45.8 °F /  7.7 °C 29.77in /  1008hPa SW 10.0mph /  16.1km/h 11.0mph /  17.7km/h 95% 0.00in /  0mm
21:49 47.1 °F /  8.4 °C 45.7 °F /  7.6 °C 29.77in /  1008hPa WSW 5.0mph /  8km/h 9.0mph /  14.5km/h 95% 0.00in /  0mm
21:54 47.0 °F /  8.3 °C 45.6 °F /  7.6 °C 29.77in /  1008hPa SW 6.0mph /  9.7km/h 10.0mph /  16.1km/h 95% 0.00in /  0mm
21:59 46.7 °F /  8.2 °C 45.3 °F /  7.4 °C 29.77in /  1008hPa WSW 5.0mph /  8km/h 10.0mph /  16.1km/h 95% 0.00in /  0mm
22:04 46.5 °F /  8.1 °C 45.1 °F /  7.3 °C 29.77in /  1008hPa WSW 5.0mph /  8km/h 10.0mph /  16.1km/h 95% 0.00in /  0mm
22:09 46.3 °F /  7.9 °C 44.9 °F /  7.2 °C 29.78in /  1008.4hPa SW 3.0mph /  4.8km/h 9.0mph /  14.5km/h 95% 0.00in /  0mm
22:14 46.1 °F /  7.8 °C 44.7 °F /  7.1 °C 29.78in /  1008.4hPa WSW 11.0mph /  17.7km/h 13.0mph /  20.9km/h 95% 0.00in /  0mm
22:19 45.9 °F /  7.7 °C 44.5 °F /  6.9 °C 29.78in /  1008.4hPa SSW 6.0mph /  9.7km/h 13.0mph /  20.9km/h 95% 0.00in /  0mm
22:24 45.7 °F /  7.6 °C 44.4 °F /  6.9 °C 29.78in /  1008.4hPa WSW 7.0mph /  11.3km/h 10.0mph /  16.1km/h 95% 0.00in /  0mm
22:29 45.6 °F /  7.6 °C 44.3 °F /  6.8 °C 29.78in /  1008.4hPa WSW 6.0mph /  9.7km/h 10.0mph /  16.1km/h 95% 0.00in /  0mm
22:34 45.6 °F /  7.6 °C 44.3 °F /  6.8 °C 29.78in /  1008.4hPa WSW 6.0mph /  9.7km/h 13.0mph /  20.9km/h 95% 0.00in /  0mm
22:39 45.6 °F /  7.6 °C 44.3 °F /  6.8 °C 29.78in /  1008.4hPa WSW 6.0mph /  9.7km/h 13.0mph /  20.9km/h 95% 0.00in /  0mm
22:44 45.5 °F /  7.5 °C 44.2 °F /  6.8 °C 29.78in /  1008.4hPa SSW 7.0mph /  11.3km/h 13.0mph /  20.9km/h 95% 0.00in /  0mm
22:49 45.4 °F /  7.4 °C 44.1 °F /  6.7 °C 29.78in /  1008.4hPa SW 5.0mph /  8km/h 12.0mph /  19.3km/h 95% 0.00in /  0mm
22:54 45.2 °F /  7.3 °C 43.9 °F /  6.6 °C 29.79in /  1008.7hPa SW 7.0mph /  11.3km/h 12.0mph /  19.3km/h 95% 0.00in /  0mm
22:59 44.9 °F /  7.2 °C 43.6 °F /  6.4 °C 29.79in /  1008.7hPa SW 3.0mph /  4.8km/h 10.0mph /  16.1km/h 95% 0.00in /  0mm
23:04 44.3 °F /  6.8 °C 42.7 °F /  5.9 °C 29.79in /  1008.7hPa SW 6.0mph /  9.7km/h 14.0mph /  22.5km/h 94% 0.00in /  0mm
23:09 43.8 °F /  6.6 °C 42.2 °F /  5.7 °C 29.79in /  1008.7hPa SW 7.0mph /  11.3km/h 14.0mph /  22.5km/h 94% 0.00in /  0mm
23:14 43.3 °F /  6.3 °C 41.7 °F /  5.4 °C 29.79in /  1008.7hPa WSW 5.0mph /  8km/h 11.0mph /  17.7km/h 94% 0.00in /  0mm
23:19 43.1 °F /  6.2 °C 41.8 °F /  5.4 °C 29.79in /  1008.7hPa SW 6.0mph /  9.7km/h 9.0mph /  14.5km/h 95% 0.00in /  0mm
23:24 42.9 °F /  6.1 °C 41.6 °F /  5.3 °C 29.79in /  1008.7hPa South 3.0mph /  4.8km/h 11.0mph /  17.7km/h 95% 0.00in /  0mm
23:29 42.8 °F /  6 °C 41.5 °F /  5.3 °C 29.79in /  1008.7hPa West 4.0mph /  6.4km/h 10.0mph /  16.1km/h 95% 0.00in /  0mm
23:34 42.7 °F /  5.9 °C 41.4 °F /  5.2 °C 29.79in /  1008.7hPa SW 5.0mph /  8km/h 10.0mph /  16.1km/h 95% 0.00in /  0mm
23:39 42.6 °F /  5.9 °C 41.3 °F /  5.2 °C 29.80in /  1009hPa WSW 5.0mph /  8km/h 10.0mph /  16.1km/h 95% 0.00in /  0mm
23:44 42.5 °F /  5.8 °C 41.2 °F /  5.1 °C 29.80in /  1009hPa WSW 5.0mph /  8km/h 10.0mph /  16.1km/h 95% 0.00in /  0mm
23:49 42.2 °F /  5.7 °C 40.9 °F /  4.9 °C 29.80in /  1009hPa SW 6.0mph /  9.7km/h 10.0mph /  16.1km/h 95% 0.00in /  0mm
23:54 42.0 °F /  5.6 °C 40.7 °F /  4.8 °C 29.80in /  1009hPa WSW 4.0mph /  6.4km/h 9.0mph /  14.5km/h 95% 0.00in /  0mm
23:59 41.8 °F /  5.4 °C 40.5 °F /  4.7 °C 29.80in /  1009hPa WSW 6.0mph /  9.7km/h 11.0mph /  17.7km/h 95% 0.00in /  0mm
Buffalo, New York, USA
Compliments of Weather Underground - 2.5 mb